createdAt,value
2023-05-24T00:00:27.463Z,102496.06
2023-05-24T00:02:55.136Z,102499.44
2023-05-24T00:05:23.670Z,102492.41
2023-05-24T00:07:51.831Z,102497.63
2023-05-24T00:10:19.467Z,102496.66
2023-05-24T00:12:47.047Z,102488.00
2023-05-24T00:15:14.857Z,102493.06
2023-05-24T00:17:42.691Z,102491.25
2023-05-24T00:20:14.202Z,102485.97
2023-05-24T00:22:42.647Z,102478.03
2023-05-24T00:25:10.643Z,102475.38
2023-05-24T00:27:38.234Z,102480.50
2023-05-24T00:30:07.385Z,102477.91
2023-05-24T00:32:35.225Z,102474.25
2023-05-24T00:35:04.260Z,102482.03
2023-05-24T00:37:31.821Z,102470.75
2023-05-24T00:39:59.386Z,102475.03
2023-05-24T00:42:26.927Z,102476.66
2023-05-24T00:44:54.468Z,102476.66
2023-05-24T00:47:22.107Z,102487.03
2023-05-24T00:49:49.748Z,102484.34
2023-05-24T00:52:18.430Z,102476.41
2023-05-24T00:54:46.366Z,102479.88
2023-05-24T00:57:14.454Z,102480.03
2023-05-24T00:59:42.289Z,102476.50
2023-05-24T01:02:10.007Z,102465.25
2023-05-24T01:04:38.124Z,102459.22
2023-05-24T01:07:14.458Z,102470.31
2023-05-24T01:10:04.646Z,102476.13
2023-05-24T01:12:45.216Z,102472.72
2023-05-24T01:15:29.289Z,102482.38
2023-05-24T01:18:17.143Z,102480.69
2023-05-24T01:20:46.949Z,102478.06
2023-05-24T01:23:41.830Z,102472.03
2023-05-24T01:26:38.219Z,102464.16
2023-05-24T01:29:06.387Z,102471.75
2023-05-24T01:31:35.961Z,102474.25
2023-05-24T01:34:03.682Z,102475.09
2023-05-24T01:36:31.243Z,102477.66
2023-05-24T01:38:58.879Z,102475.03
2023-05-24T01:41:49.930Z,102473.44
2023-05-24T01:44:35.470Z,102469.25
2023-05-24T01:47:12.699Z,102465.81
2023-05-24T01:49:45.251Z,102467.50
2023-05-24T01:52:16.956Z,102474.38
2023-05-24T01:54:52.590Z,102468.28
2023-05-24T01:57:22.003Z,102474.38
2023-05-24T01:59:51.359Z,102468.25
2023-05-24T02:02:19.793Z,102461.22
2023-05-24T02:04:47.444Z,102460.50
2023-05-24T02:07:15.164Z,102457.91
2023-05-24T02:09:42.722Z,102456.06
2023-05-24T02:12:11.206Z,102458.66
2023-05-24T02:14:39.172Z,102463.66
2023-05-24T02:17:07.122Z,102459.38
2023-05-24T02:19:36.867Z,102463.69
2023-05-24T02:22:04.669Z,102455.16
2023-05-24T02:24:32.261Z,102457.59
2023-05-24T02:26:59.796Z,102461.88
2023-05-24T02:29:27.481Z,102463.63
2023-05-24T02:31:56.654Z,102470.63
2023-05-24T02:34:25.121Z,102471.41
2023-05-24T02:36:54.304Z,102464.53
2023-05-24T02:39:21.925Z,102474.94
2023-05-24T02:41:49.498Z,102469.75
2023-05-24T02:44:17.192Z,102476.56
2023-05-24T02:46:44.904Z,102472.25
2023-05-24T02:49:12.504Z,102471.31
2023-05-24T02:51:40.130Z,102468.44
2023-05-24T02:54:07.811Z,102463.22
2023-05-24T02:56:35.691Z,102459.75
2023-05-24T02:59:03.230Z,102456.00
2023-05-24T03:01:30.946Z,102464.63
2023-05-24T03:03:58.656Z,102467.22
2023-05-24T03:06:26.359Z,102461.00
2023-05-24T03:08:53.895Z,102474.94
2023-05-24T03:11:22.691Z,102464.38
2023-05-24T03:13:50.494Z,102474.03
2023-05-24T03:16:18.048Z,102474.06
2023-05-24T03:18:45.629Z,102465.47
2023-05-24T03:21:13.300Z,102459.34
2023-05-24T03:23:40.830Z,102458.41
2023-05-24T03:26:08.365Z,102466.06
2023-05-24T03:28:35.887Z,102465.13
2023-05-24T03:31:03.436Z,102466.16
2023-05-24T03:33:32.139Z,102471.34
2023-05-24T03:36:00.506Z,102468.69
2023-05-24T03:38:28.056Z,102466.06
2023-05-24T03:40:55.798Z,102467.75
2023-05-24T03:43:23.452Z,102467.81
2023-05-24T03:45:51.295Z,102466.94
2023-05-24T03:48:20.791Z,102460.03
2023-05-24T03:50:48.800Z,102459.03
2023-05-24T03:53:16.560Z,102452.00
2023-05-24T03:55:44.338Z,102457.34
2023-05-24T03:58:12.673Z,102453.97
2023-05-24T04:00:40.415Z,102462.78
2023-05-24T04:03:09.073Z,102452.50
2023-05-24T04:05:36.668Z,102449.03
2023-05-24T04:08:04.291Z,102452.53
2023-05-24T04:10:31.875Z,102456.06
2023-05-24T04:13:00.684Z,102457.19
2023-05-24T04:15:28.184Z,102461.66
2023-05-24T04:17:55.997Z,102455.81
2023-05-24T04:20:25.717Z,102460.41
2023-05-24T04:22:53.547Z,102459.59
2023-05-24T04:25:21.562Z,102456.16
2023-05-24T04:27:49.324Z,102460.78
2023-05-24T04:30:17.382Z,102459.31
2023-05-24T04:32:45.501Z,102456.78
2023-05-24T04:35:13.225Z,102463.88
2023-05-24T04:37:41.267Z,102459.66
2023-05-24T04:40:10.691Z,102459.09
2023-05-24T04:42:38.451Z,102448.91
2023-05-24T04:45:07.072Z,102446.47
2023-05-24T04:47:34.687Z,102458.13
2023-05-24T04:50:02.353Z,102461.09
2023-05-24T04:52:30.547Z,102456.19
2023-05-24T04:54:58.198Z,102456.34
2023-05-24T04:57:25.772Z,102458.34
2023-05-24T04:59:53.314Z,102451.59
2023-05-24T05:02:22.317Z,102462.03
2023-05-24T05:04:49.940Z,102463.03
2023-05-24T05:07:17.570Z,102459.63
2023-05-24T05:09:45.117Z,102455.41
2023-05-24T05:12:13.159Z,102453.75
2023-05-24T05:14:40.674Z,102465.75
2023-05-24T05:17:08.280Z,102457.38
2023-05-24T05:19:35.894Z,102466.78
2023-05-24T05:22:03.579Z,102452.03
2023-05-24T05:24:31.614Z,102464.84
2023-05-24T05:26:59.269Z,102466.06
2023-05-24T05:29:26.845Z,102473.25
2023-05-24T05:31:54.363Z,102475.09
2023-05-24T05:34:22.078Z,102469.28
2023-05-24T05:36:49.689Z,102478.97
2023-05-24T05:39:17.235Z,102466.31
2023-05-24T05:41:46.549Z,102471.44
2023-05-24T05:44:15.044Z,102471.47
2023-05-24T05:46:46.012Z,102473.41
2023-05-24T05:49:15.336Z,102466.41
2023-05-24T05:51:43.086Z,102468.09
2023-05-24T05:54:14.549Z,102458.69
2023-05-24T05:56:45.659Z,102464.75
2023-05-24T05:59:13.724Z,102467.50
2023-05-24T06:01:41.509Z,102473.91
2023-05-24T06:04:09.291Z,102466.06
2023-05-24T06:06:37.362Z,102473.88
2023-05-24T06:09:05.717Z,102480.44
2023-05-24T06:11:33.325Z,102473.78
2023-05-24T06:14:01.351Z,102477.28
2023-05-24T06:16:28.962Z,102465.34
2023-05-24T06:19:05.513Z,102466.66
2023-05-24T06:21:34.147Z,102473.81
2023-05-24T06:24:02.692Z,102468.50
2023-05-24T06:26:30.336Z,102472.81
2023-05-24T06:28:57.956Z,102465.09
2023-05-24T06:31:25.722Z,102475.59
2023-05-24T06:34:03.702Z,102469.38
2023-05-24T06:36:34.109Z,102482.34
2023-05-24T06:39:01.785Z,102482.44
2023-05-24T06:41:29.485Z,102485.91
2023-05-24T06:43:57.084Z,102482.59
2023-05-24T06:46:24.682Z,102476.50
2023-05-24T06:48:52.426Z,102475.56
2023-05-24T06:51:20.144Z,102468.75
2023-05-24T06:53:47.802Z,102477.56
2023-05-24T06:56:15.454Z,102463.63
2023-05-24T06:58:43.016Z,102486.31
2023-05-24T07:01:11.060Z,102489.78
2023-05-24T07:03:38.608Z,102481.13
2023-05-24T07:06:06.634Z,102479.28
2023-05-24T07:08:34.211Z,102479.31
2023-05-24T07:11:02.272Z,102472.38
2023-05-24T07:13:29.933Z,102484.56
2023-05-24T07:15:57.450Z,102487.09
2023-05-24T07:18:25.015Z,102487.97
2023-05-24T07:20:52.778Z,102495.72
2023-05-24T07:23:20.656Z,102498.41
2023-05-24T07:25:48.319Z,102491.47
2023-05-24T07:28:19.907Z,102479.25
2023-05-24T07:30:47.784Z,102489.84
2023-05-24T07:33:16.595Z,102487.22
2023-05-24T07:35:45.836Z,102487.22
2023-05-24T07:38:13.561Z,102495.97
2023-05-24T07:40:41.393Z,102493.28
2023-05-24T07:43:09.151Z,102484.41
2023-05-24T07:45:36.732Z,102475.81
2023-05-24T07:48:04.469Z,102477.50
2023-05-24T07:50:32.189Z,102482.59
2023-05-24T07:52:59.723Z,102475.28
2023-05-24T07:55:28.114Z,102473.38
2023-05-24T07:57:56.651Z,102471.19
2023-05-24T08:00:24.910Z,102474.81
2023-05-24T08:02:52.573Z,102489.75
2023-05-24T08:05:20.153Z,102485.44
2023-05-24T08:07:48.133Z,102489.72
2023-05-24T08:10:15.790Z,102481.88
2023-05-24T08:12:43.895Z,102473.06
2023-05-24T08:15:12.313Z,102474.88
2023-05-24T08:17:41.527Z,102479.22
2023-05-24T08:20:13.681Z,102489.59
2023-05-24T08:22:41.293Z,102482.53
2023-05-24T08:25:09.349Z,102481.16
2023-05-24T08:27:37.096Z,102474.56
2023-05-24T08:30:05.028Z,102474.59
2023-05-24T08:32:33.241Z,102478.06
2023-05-24T08:35:18.458Z,102474.75
2023-05-24T08:37:48.081Z,102477.44
2023-05-24T08:40:16.001Z,102473.59
2023-05-24T08:42:44.322Z,102477.94
2023-05-24T08:45:16.497Z,102466.13
2023-05-24T08:47:44.541Z,102480.78
2023-05-24T08:50:12.712Z,102463.13
2023-05-24T08:52:41.505Z,102459.13
2023-05-24T08:55:10.571Z,102466.47
2023-05-24T08:57:39.914Z,102473.38
2023-05-24T09:00:11.564Z,102468.00
2023-05-24T09:02:40.657Z,102467.38
2023-05-24T09:05:12.482Z,102455.50
2023-05-24T09:07:41.874Z,102451.63
2023-05-24T09:10:10.657Z,102448.47
2023-05-24T09:12:39.756Z,102465.41
2023-05-24T09:15:09.209Z,102466.75
2023-05-24T09:17:37.738Z,102468.53
2023-05-24T09:20:10.129Z,102470.41
2023-05-24T09:22:41.277Z,102480.66
2023-05-24T09:25:11.057Z,102469.97
2023-05-24T09:27:39.130Z,102483.63
2023-05-24T09:30:12.900Z,102471.72
2023-05-24T09:32:41.266Z,102470.38
2023-05-24T09:35:10.412Z,102470.84
2023-05-24T09:37:40.396Z,102461.06
2023-05-24T09:40:18.234Z,102457.84
2023-05-24T09:42:46.349Z,102464.34
2023-05-24T09:45:13.915Z,102453.13
2023-05-24T09:47:43.592Z,102458.94
2023-05-24T09:50:16.596Z,102454.34
2023-05-24T09:52:44.670Z,102455.22
2023-05-24T09:55:16.602Z,102436.41
2023-05-24T09:57:52.428Z,102456.97
2023-05-24T10:00:25.104Z,102459.13
2023-05-24T10:03:15.239Z,102462.69
2023-05-24T10:05:46.592Z,102455.22
2023-05-24T10:08:14.992Z,102453.03
2023-05-24T10:10:43.351Z,102469.78
2023-05-24T10:13:11.685Z,102467.91
2023-05-24T10:15:39.382Z,102464.75
2023-05-24T10:18:10.659Z,102455.88
2023-05-24T10:20:42.006Z,102448.81
2023-05-24T10:23:11.737Z,102452.53
2023-05-24T10:25:45.434Z,102447.09
2023-05-24T10:28:16.184Z,102447.25
2023-05-24T10:31:02.952Z,102437.88
2023-05-24T10:33:33.566Z,102434.06
2023-05-24T10:36:01.937Z,102438.00
2023-05-24T10:38:31.072Z,102455.69
2023-05-24T10:40:58.994Z,102454.59
2023-05-24T10:43:27.481Z,102456.44
2023-05-24T10:45:56.533Z,102456.72
2023-05-24T10:48:30.178Z,102455.13
2023-05-24T10:50:57.884Z,102453.13
2023-05-24T10:53:28.470Z,102451.03
2023-05-24T10:56:04.163Z,102453.63
2023-05-24T10:59:01.003Z,102445.91
2023-05-24T11:01:32.023Z,102440.06
2023-05-24T11:04:19.755Z,102448.38
2023-05-24T11:07:00.448Z,102448.50
2023-05-24T11:09:29.800Z,102444.97
2023-05-24T11:12:04.026Z,102448.19
2023-05-24T11:14:33.141Z,102444.91
2023-05-24T11:17:01.629Z,102445.34
2023-05-24T11:19:34.353Z,102445.31
2023-05-24T11:22:04.874Z,102449.00
2023-05-24T11:24:33.749Z,102449.34
2023-05-24T11:27:03.560Z,102458.69
2023-05-24T11:29:31.946Z,102450.72
2023-05-24T11:32:04.826Z,102445.13
2023-05-24T11:34:35.101Z,102420.16
2023-05-24T11:37:06.052Z,102449.84
2023-05-24T11:39:35.825Z,102456.50
2023-05-24T11:42:07.481Z,102450.97
2023-05-24T11:44:38.014Z,102448.19
2023-05-24T11:47:08.375Z,102447.53
2023-05-24T11:49:36.239Z,102442.41
2023-05-24T11:52:03.913Z,102435.69
2023-05-24T11:54:33.446Z,102439.72
2023-05-24T11:57:02.035Z,102435.28
2023-05-24T11:59:30.574Z,102438.94
2023-05-24T12:02:08.059Z,102450.44
2023-05-24T12:04:36.336Z,102442.38
2023-05-24T12:07:04.161Z,102441.13
2023-05-24T12:09:32.029Z,102453.19
2023-05-24T12:11:59.756Z,102439.09
2023-05-24T12:14:31.709Z,102448.03
2023-05-24T12:17:00.819Z,102430.13
2023-05-24T12:19:36.436Z,102432.44
2023-05-24T12:22:08.410Z,102430.66
2023-05-24T12:24:36.723Z,102430.38
2023-05-24T12:27:07.775Z,102430.16
2023-05-24T12:29:37.804Z,102430.16
2023-05-24T12:32:06.598Z,102433.00
2023-05-24T12:34:34.229Z,102419.00
2023-05-24T12:37:01.860Z,102425.41
2023-05-24T12:39:31.881Z,102429.09
2023-05-24T12:42:02.348Z,102422.22
2023-05-24T12:44:35.804Z,102434.34
2023-05-24T12:47:06.733Z,102432.03
2023-05-24T12:49:35.097Z,102434.47
2023-05-24T12:52:02.835Z,102431.94
2023-05-24T12:54:30.975Z,102433.78
2023-05-24T12:57:00.745Z,102437.16
2023-05-24T12:59:29.059Z,102435.72
2023-05-24T13:01:57.131Z,102441.75
2023-05-24T13:04:26.420Z,102437.44
2023-05-24T13:06:54.213Z,102437.19
2023-05-24T13:09:23.525Z,102437.31
2023-05-24T13:11:52.154Z,102440.88
2023-05-24T13:14:20.434Z,102442.53
2023-05-24T13:16:48.836Z,102436.00
2023-05-24T13:19:17.140Z,102436.75
2023-05-24T13:21:45.150Z,102445.50
2023-05-24T13:24:15.815Z,102442.34
2023-05-24T13:26:43.658Z,102444.34
2023-05-24T13:31:42.062Z,102440.63
2023-05-24T13:34:10.884Z,102428.75
2023-05-24T13:36:38.875Z,102429.19
2023-05-24T13:41:41.406Z,102427.19
2023-05-24T13:44:09.786Z,102416.19
2023-05-24T13:46:37.784Z,102421.91
2023-05-24T13:49:06.236Z,102417.06
2023-05-24T13:51:34.298Z,102424.13
2023-05-24T13:54:02.153Z,102422.25
2023-05-24T13:56:32.981Z,102427.19
2023-05-24T13:59:02.466Z,102430.00
2023-05-24T14:01:30.454Z,102427.41
2023-05-24T14:03:58.105Z,102417.91
2023-05-24T14:06:25.733Z,102429.78
2023-05-24T14:08:54.305Z,102436.59
2023-05-24T14:11:22.372Z,102434.56
2023-05-24T14:16:21.219Z,102421.22
2023-05-24T14:18:50.292Z,102428.53
2023-05-24T14:21:19.384Z,102428.44
2023-05-24T14:23:47.005Z,102426.03
2023-05-24T14:26:14.639Z,102425.69
2023-05-24T14:28:42.278Z,102430.72
2023-05-24T14:31:09.867Z,102435.00
2023-05-24T14:33:37.918Z,102433.31
2023-05-24T14:36:05.679Z,102423.06
2023-05-24T14:38:33.431Z,102416.16
2023-05-24T14:41:01.663Z,102399.81
2023-05-24T14:43:29.341Z,102429.88
2023-05-24T14:45:57.066Z,102424.38
2023-05-24T14:48:24.747Z,102430.50
2023-05-24T14:50:52.295Z,102427.16
2023-05-24T14:53:19.828Z,102431.50
2023-05-24T14:55:47.766Z,102437.22
2023-05-24T14:58:15.572Z,102429.00
2023-05-24T15:00:44.026Z,102428.81
2023-05-24T15:03:12.639Z,102423.81
2023-05-24T15:05:41.781Z,102430.75
2023-05-24T15:08:10.967Z,102427.22
2023-05-24T15:10:39.994Z,102427.72
2023-05-24T15:13:08.178Z,102428.06
2023-05-24T15:15:35.937Z,102434.06
2023-05-24T15:18:03.767Z,102438.69
2023-05-24T15:20:31.493Z,102435.31
2023-05-24T15:22:59.133Z,102445.50
2023-05-24T15:25:26.800Z,102434.00
2023-05-24T15:27:54.566Z,102427.81
2023-05-24T15:30:24.006Z,102429.59
2023-05-24T15:32:51.720Z,102430.88
2023-05-24T15:35:19.381Z,102431.06
2023-05-24T15:37:46.928Z,102438.56
2023-05-24T15:40:15.135Z,102430.97
2023-05-24T15:42:43.256Z,102441.44
2023-05-24T15:45:11.480Z,102442.41
2023-05-24T15:47:40.502Z,102435.28
2023-05-24T15:50:09.432Z,102441.81
2023-05-24T15:52:37.532Z,102437.94
2023-05-24T15:55:05.787Z,102425.66
2023-05-24T15:57:33.340Z,102442.66
2023-05-24T16:00:01.228Z,102426.97
2023-05-24T16:02:29.811Z,102440.66
2023-05-24T16:04:57.630Z,102436.56
2023-05-24T16:07:25.378Z,102435.78
2023-05-24T16:09:52.988Z,102436.50
2023-05-24T16:12:21.024Z,102435.50
2023-05-24T16:14:48.617Z,102435.28
2023-05-24T16:17:16.318Z,102431.22
2023-05-24T16:19:46.309Z,102429.25
2023-05-24T16:22:14.049Z,102436.19
2023-05-24T16:24:41.677Z,102437.94
2023-05-24T16:27:09.704Z,102426.84
2023-05-24T16:29:37.623Z,102425.41
2023-05-24T16:32:05.371Z,102423.53
2023-05-24T16:34:41.468Z,102425.53
2023-05-24T16:37:19.838Z,102425.41
2023-05-24T16:39:47.445Z,102420.50
2023-05-24T16:42:15.404Z,102421.31
2023-05-24T16:44:42.964Z,102418.16
2023-05-24T16:47:10.596Z,102398.31
2023-05-24T16:49:38.229Z,102422.03
2023-05-24T16:52:05.888Z,102415.78
2023-05-24T16:54:33.433Z,102417.25
2023-05-24T16:57:01.698Z,102410.38
2023-05-24T16:59:29.315Z,102422.72
2023-05-24T17:01:56.970Z,102423.03
2023-05-24T17:04:24.570Z,102415.63
2023-05-24T17:06:52.108Z,102427.19
2023-05-24T17:09:19.647Z,102417.38
2023-05-24T17:11:48.794Z,102425.22
2023-05-24T17:14:17.596Z,102417.28
2023-05-24T17:16:45.194Z,102419.06
2023-05-24T17:19:13.985Z,102403.31
2023-05-24T17:21:42.084Z,102413.94
2023-05-24T17:24:09.674Z,102407.88
2023-05-24T17:26:38.961Z,102407.78
2023-05-24T17:29:06.569Z,102393.59
2023-05-24T17:31:34.484Z,102412.06
2023-05-24T17:34:02.136Z,102412.22
2023-05-24T17:36:33.350Z,102411.41
2023-05-24T17:39:00.925Z,102403.50
2023-05-24T17:41:28.469Z,102414.78
2023-05-24T17:43:55.987Z,102419.31
2023-05-24T17:46:23.705Z,102414.88
2023-05-24T17:48:51.999Z,102407.91
2023-05-24T17:51:19.977Z,102414.19
2023-05-24T17:53:48.264Z,102419.50
2023-05-24T17:56:15.828Z,102420.13
2023-05-24T17:58:44.879Z,102431.00
2023-05-24T18:01:13.737Z,102427.38
2023-05-24T18:03:42.604Z,102424.56
2023-05-24T18:06:11.048Z,102434.44
2023-05-24T18:08:43.201Z,102436.25
2023-05-24T18:11:13.172Z,102442.31
2023-05-24T18:13:42.512Z,102440.53
2023-05-24T18:16:14.271Z,102431.72
2023-05-24T18:18:43.780Z,102431.81
2023-05-24T18:21:12.964Z,102440.59
2023-05-24T18:23:40.681Z,102451.09
2023-05-24T18:26:09.558Z,102448.56
2023-05-24T18:28:38.329Z,102447.72
2023-05-24T18:31:11.210Z,102447.78
2023-05-24T18:33:39.103Z,102444.31
2023-05-24T18:36:07.235Z,102456.59
2023-05-24T18:38:35.613Z,102435.63
2023-05-24T18:41:06.258Z,102451.38
2023-05-24T18:43:34.440Z,102435.63
2023-05-24T18:46:02.621Z,102451.38
2023-05-24T18:48:30.590Z,102451.38
2023-05-24T18:50:58.217Z,102449.66
2023-05-24T18:53:25.964Z,102461.03
2023-05-24T18:55:53.551Z,102464.53
2023-05-24T18:58:21.355Z,102468.00
2023-05-24T19:00:50.490Z,102467.13
2023-05-24T19:03:18.138Z,102467.97
2023-05-24T19:05:45.977Z,102472.38
2023-05-24T19:08:13.695Z,102474.06
2023-05-24T19:10:41.291Z,102484.56
2023-05-24T19:13:08.928Z,102480.22
2023-05-24T19:15:37.300Z,102482.78
2023-05-24T19:18:05.026Z,102486.28
2023-05-24T19:20:32.686Z,102492.41
2023-05-24T19:23:00.459Z,102489.72
2023-05-24T19:25:28.060Z,102494.97
2023-05-24T19:27:59.789Z,102491.47
2023-05-24T19:30:27.724Z,102507.19
2023-05-24T19:32:55.453Z,102497.59
2023-05-24T19:35:23.187Z,102508.84
2023-05-24T19:37:51.012Z,102510.63
2023-05-24T19:40:18.552Z,102503.63
2023-05-24T19:42:46.187Z,102496.66
2023-05-24T19:45:14.314Z,102508.84
2023-05-24T19:47:42.316Z,102507.06
2023-05-24T19:50:10.595Z,102514.06
2023-05-24T19:52:38.096Z,102511.38
2023-05-24T19:55:06.015Z,102519.22
2023-05-24T19:57:33.595Z,102515.69
2023-05-24T20:00:01.999Z,102522.63
2023-05-24T20:02:29.619Z,102523.50
2023-05-24T20:04:57.237Z,102519.97
2023-05-24T20:07:24.816Z,102523.47
2023-05-24T20:09:53.644Z,102526.06
2023-05-24T20:12:21.302Z,102527.75
2023-05-24T20:14:51.122Z,102535.63
2023-05-24T20:17:18.812Z,102526.81
2023-05-24T20:19:46.445Z,102531.97
2023-05-24T20:22:16.150Z,102534.50
2023-05-24T20:24:43.747Z,102530.25
2023-05-24T20:27:11.301Z,102538.00
2023-05-24T20:29:38.903Z,102539.72
2023-05-24T20:32:06.902Z,102545.88
2023-05-24T20:34:34.519Z,102544.97
2023-05-24T20:37:02.096Z,102545.75
2023-05-24T20:39:29.706Z,102544.91
2023-05-24T20:41:58.465Z,102547.47
2023-05-24T20:44:26.549Z,102563.09
2023-05-24T20:46:54.180Z,102554.22
2023-05-24T20:49:21.883Z,102563.00
2023-05-24T20:51:49.394Z,102562.13
2023-05-24T20:54:16.996Z,102561.25
2023-05-24T20:56:44.564Z,102562.13
2023-05-24T20:59:12.655Z,102558.56
2023-05-24T21:01:40.790Z,102554.19
2023-05-24T21:04:08.413Z,102565.56
2023-05-24T21:06:36.173Z,102567.25
2023-05-24T21:09:03.920Z,102556.72
2023-05-24T21:11:32.529Z,102558.47
2023-05-24T21:14:00.145Z,102560.16
2023-05-24T21:16:28.242Z,102564.47
2023-05-24T21:18:55.830Z,102554.88
2023-05-24T21:21:24.535Z,102570.53
2023-05-24T21:23:52.032Z,102559.19
2023-05-24T21:26:19.588Z,102582.56
2023-05-24T21:28:47.125Z,102580.03
2023-05-24T21:31:14.798Z,102582.63
2023-05-24T21:33:44.102Z,102576.53
2023-05-24T21:36:11.964Z,102581.75
2023-05-24T21:38:39.500Z,102586.91
2023-05-24T21:41:07.107Z,102591.19
2023-05-24T21:43:34.634Z,102592.91
2023-05-24T21:46:02.192Z,102591.97
2023-05-24T21:48:29.770Z,102592.72
2023-05-24T21:50:57.311Z,102597.88
2023-05-24T21:53:24.820Z,102592.66
2023-05-24T21:55:52.464Z,102599.56
2023-05-24T21:58:20.003Z,102609.09
2023-05-24T22:00:47.727Z,102615.13
2023-05-24T22:03:15.474Z,102609.91
2023-05-24T22:05:43.212Z,102622.03
2023-05-24T22:08:11.882Z,102618.56
2023-05-24T22:10:39.470Z,102625.50
2023-05-24T22:13:07.278Z,102617.59
2023-05-24T22:15:34.852Z,102622.00
2023-05-24T22:18:02.471Z,102615.06
2023-05-24T22:20:30.958Z,102624.56
2023-05-24T22:22:58.940Z,102625.47
2023-05-24T22:25:26.803Z,102621.97
2023-05-24T22:27:55.669Z,102622.78
2023-05-24T22:30:23.740Z,102620.16
2023-05-24T22:32:51.424Z,102613.28
2023-05-24T22:35:19.123Z,102614.09
2023-05-24T22:37:46.706Z,102608.91
2023-05-24T22:40:14.634Z,102616.75
2023-05-24T22:42:42.234Z,102613.34
2023-05-24T22:45:10.210Z,102609.91
2023-05-24T22:47:39.971Z,102621.19
2023-05-24T22:50:08.812Z,102611.53
2023-05-24T22:52:36.408Z,102617.56
2023-05-24T22:55:04.347Z,102621.91
2023-05-24T22:57:31.911Z,102624.59
2023-05-24T22:59:59.746Z,102631.63
2023-05-24T23:02:29.193Z,102634.22
2023-05-24T23:04:57.137Z,102633.41
2023-05-24T23:07:25.236Z,102637.75
2023-05-24T23:09:53.455Z,102625.69
2023-05-24T23:12:21.145Z,102620.50
2023-05-24T23:14:48.791Z,102623.19
2023-05-24T23:17:20.222Z,102629.38
2023-05-24T23:19:50.368Z,102635.56
2023-05-24T23:22:19.260Z,102638.19
2023-05-24T23:27:15.201Z,102625.25
2023-05-24T23:29:42.804Z,102640.19
2023-05-24T23:32:10.977Z,102639.22
2023-05-24T23:34:38.581Z,102638.34
2023-05-24T23:37:06.676Z,102641.84
2023-05-24T23:39:34.569Z,102645.31
2023-05-24T23:42:02.528Z,102629.53
2023-05-24T23:44:30.460Z,102637.28
2023-05-24T23:46:58.620Z,102633.72
2023-05-24T23:49:26.486Z,102638.03
2023-05-24T23:51:54.089Z,102633.69
2023-05-24T23:54:21.617Z,102641.44
2023-05-24T23:56:49.350Z,102639.81
2023-05-24T23:59:17.868Z,102625.81
